Time;durP1;ratioP1;P1;durP2;ratioP2;P2;SDS_P1;SDS_P2;PMS_P1;PMS_P2;Temp;Humidity;BMP_temperature;BMP_pressure;BME280_temperature;BME280_humidity;BME280_pressure;Samples;Min_cycle;Max_cycle;Signal;HPM_P1;HPM_P2
2021/09/03 00:01:21;;;;;;;9.03;6.83;;;;;;;12.37;77.58;96140.84;6153501;23;20163;-80
2021/09/03 00:03:46;;;;;;;9.40;7.13;;;;;;;12.35;77.43;96137.53;6153647;23;20151;-80
2021/09/03 00:06:12;;;;;;;11.07;7.70;;;;;;;12.35;78.20;96140.97;6150605;23;20309;-80
2021/09/03 00:08:37;;;;;;;8.13;7.13;;;;;;;12.35;78.03;96130.53;6153516;23;20185;-80
2021/09/03 00:11:03;;;;;;;9.20;6.93;;;;;;;12.27;77.80;96130.44;6153530;23;20155;-80
2021/09/03 00:13:28;;;;;;;6.77;6.03;;;;;;;12.26;78.24;96125.38;6153597;23;20223;-80
2021/09/03 00:15:54;;;;;;;10.57;7.57;;;;;;;12.24;78.48;96127.31;6153123;23;20266;-77
2021/09/03 00:18:19;;;;;;;8.73;6.90;;;;;;;12.24;78.26;96127.31;6153619;23;20151;-79
2021/09/03 00:20:44;;;;;;;7.70;6.60;;;;;;;12.32;78.25;96123.03;6155278;23;20238;-80
2021/09/03 00:23:10;;;;;;;12.23;7.43;;;;;;;12.25;78.42;96121.97;6155966;23;20167;-80
2021/09/03 00:25:35;;;;;;;10.30;7.53;;;;;;;12.23;78.62;96115.25;6156435;23;20167;-80
2021/09/03 00:28:00;;;;;;;8.10;7.30;;;;;;;12.25;78.55;96118.53;6155854;23;20155;-80
2021/09/03 00:30:26;;;;;;;10.27;7.20;;;;;;;12.21;78.31;96112.81;6157005;23;20151;-78
2021/09/03 00:32:51;;;;;;;11.33;7.40;;;;;;;12.21;78.50;96110.22;6156415;23;20166;-79
2021/09/03 00:35:16;;;;;;;8.27;6.30;;;;;;;12.13;78.59;96107.50;6154837;23;20685;-80
2021/09/03 00:37:42;;;;;;;6.53;5.90;;;;;;;12.11;78.92;96110.25;6155743;23;20152;-78
2021/09/03 00:40:07;;;;;;;9.00;7.00;;;;;;;12.06;78.66;96102.03;6155175;23;20163;-80
2021/09/03 00:42:33;;;;;;;8.37;7.07;;;;;;;12.14;78.74;96104.75;6155434;23;20159;-79
2021/09/03 00:44:58;;;;;;;9.80;7.30;;;;;;;12.03;78.68;96102.34;6154926;23;20190;-80
2021/09/03 00:47:24;;;;;;;7.70;6.90;;;;;;;12.02;79.02;96102.47;6155271;23;20174;-79
2021/09/03 00:49:49;;;;;;;11.17;7.23;;;;;;;12.06;78.95;96102.03;6155169;23;20166;-80
2021/09/03 00:52:15;;;;;;;8.60;7.17;;;;;;;12.06;78.89;96094.22;6155440;23;20158;-79
2021/09/03 00:54:41;;;;;;;8.67;7.33;;;;;;;12.02;79.02;96095.50;6155806;23;20236;-79
2021/09/03 00:57:07;;;;;;;8.77;7.63;;;;;;;12.01;79.08;96098.22;6154992;23;20186;-80
2021/09/03 00:59:32;;;;;;;8.00;7.20;;;;;;;11.93;79.33;96098.94;6155918;23;20155;-80
2021/09/03 01:01:58;;;;;;;10.43;7.03;;;;;;;11.96;78.94;96093.44;6155369;23;20422;-80
2021/09/03 01:04:23;;;;;;;8.80;6.70;;;;;;;11.94;79.11;96087.56;6155005;23;20238;-78
2021/09/03 01:06:49;;;;;;;11.13;7.20;;;;;;;12.04;78.93;96087.53;6152362;23;20258;-78
2021/09/03 01:09:14;;;;;;;8.53;7.20;;;;;;;11.96;78.91;96090.84;6155188;23;20182;-79
2021/09/03 01:11:39;;;;;;;8.20;7.20;;;;;;;11.91;78.91;96090.44;6155196;23;20151;-79
2021/09/03 01:14:05;;;;;;;10.03;7.60;;;;;;;11.90;78.63;96089.63;6155536;23;20597;-80
2021/09/03 01:16:30;;;;;;;9.23;6.67;;;;;;;11.85;79.28;96088.44;6129525;23;20257;-79
2021/09/03 01:18:56;;;;;;;8.70;6.87;;;;;;;11.84;79.48;96089.41;6154327;23;20159;-79
2021/09/03 01:21:21;;;;;;;10.73;7.10;;;;;;;11.83;79.46;96088.53;6154749;23;20155;-78
2021/09/03 01:23:46;;;;;;;9.27;7.60;;;;;;;11.81;79.08;96094.84;6154436;23;20152;-79
2021/09/03 01:26:12;;;;;;;12.23;7.87;;;;;;;11.83;79.54;96090.31;6153373;23;20190;-79
2021/09/03 01:28:38;;;;;;;10.60;7.73;;;;;;;11.87;79.65;96086.50;6154213;23;20593;-79
2021/09/03 01:31:04;;;;;;;7.87;6.57;;;;;;;11.86;79.56;96093.47;6153701;23;20231;-79
2021/09/03 01:33:29;;;;;;;8.93;6.90;;;;;;;11.74;79.93;96086.75;6154244;23;20222;-78
2021/09/03 01:35:55;;;;;;;9.80;7.57;;;;;;;11.72;80.26;96086.09;6152852;23;20660;-79
2021/09/03 01:38:20;;;;;;;8.83;7.50;;;;;;;11.63;79.93;96085.16;6154178;23;20544;-78
2021/09/03 01:40:45;;;;;;;7.83;7.03;;;;;;;11.64;79.88;96084.19;6154139;23;20174;-79
2021/09/03 01:43:11;;;;;;;8.80;7.30;;;;;;;11.65;80.08;96074.59;6153856;23;20163;-78
2021/09/03 01:45:36;;;;;;;8.30;7.20;;;;;;;11.74;79.45;96072.94;6152653;23;20171;-77
2021/09/03 01:48:02;;;;;;;7.70;6.60;;;;;;;11.71;79.64;96074.03;6154009;23;20186;-80
2021/09/03 01:50:27;;;;;;;10.07;7.47;;;;;;;11.72;79.76;96069.66;6153916;23;20165;-79
2021/09/03 01:52:52;;;;;;;8.43;7.23;;;;;;;11.71;79.68;96070.63;6153702;23;20159;-78
2021/09/03 01:55:18;;;;;;;9.40;7.10;;;;;;;11.61;79.58;96070.66;6153225;23;20183;-80
2021/09/03 01:57:44;;;;;;;11.50;7.40;;;;;;;11.58;80.04;96069.16;6129586;23;20162;-80
2021/09/03 02:00:09;;;;;;;8.37;7.07;;;;;;;11.64;80.11;96062.56;6153937;23;20159;-78
2021/09/03 02:02:35;;;;;;;9.77;7.10;;;;;;;11.66;79.78;96059.81;6154283;23;20498;-78
2021/09/03 02:05:00;;;;;;;11.13;7.50;;;;;;;11.71;79.62;96068.84;6153388;23;20608;-79
2021/09/03 02:07:25;;;;;;;8.43;7.23;;;;;;;11.59;79.98;96067.38;6152185;23;20186;-79
2021/09/03 02:09:51;;;;;;;10.43;7.90;;;;;;;11.60;80.14;96067.25;6154114;23;20168;-79
2021/09/03 02:12:16;;;;;;;9.53;7.20;;;;;;;11.65;80.05;96064.19;6153775;23;20155;-79
2021/09/03 02:14:43;;;;;;;9.17;7.73;;;;;;;11.53;80.14;96060.13;6153726;23;20528;-80
2021/09/03 02:17:09;;;;;;;10.17;7.70;;;;;;;11.57;80.07;96064.06;6154334;23;20190;-79
2021/09/03 02:19:34;;;;;;;10.47;7.43;;;;;;;11.50;80.22;96058.66;6153640;23;20617;-79
2021/09/03 02:21:59;;;;;;;8.47;7.00;;;;;;;11.47;80.08;96056.31;6153840;23;20151;-78
2021/09/03 02:24:25;;;;;;;8.50;6.87;;;;;;;11.44;80.50;96053.19;6153753;23;20159;-80
2021/09/03 02:26:50;;;;;;;11.20;7.93;;;;;;;11.33;80.41;96054.97;6127738;23;20404;-78
2021/09/03 02:29:15;;;;;;;9.37;7.50;;;;;;;11.35;81.10;96050.44;6153390;23;20171;-76
2021/09/03 02:31:41;;;;;;;9.63;7.97;;;;;;;11.42;80.76;96047.31;6153517;23;20162;-80
2021/09/03 02:34:06;;;;;;;11.30;7.77;;;;;;;11.38;80.47;96054.53;6153960;23;20187;-77
2021/09/03 02:36:31;;;;;;;11.57;7.77;;;;;;;11.41;80.45;96050.88;6152521;23;20214;-78
2021/09/03 02:38:57;;;;;;;8.53;7.30;;;;;;;11.34;80.69;96050.59;6153716;23;20179;-78
2021/09/03 02:41:22;;;;;;;10.40;7.73;;;;;;;11.33;80.38;96054.97;6153293;23;20152;-78
2021/09/03 02:43:47;;;;;;;8.80;7.23;;;;;;;11.34;80.95;96051.41;6153059;23;20171;-80
2021/09/03 02:46:13;;;;;;;11.67;8.40;;;;;;;11.27;81.04;96047.72;6152735;23;20218;-80
2021/09/03 02:48:38;;;;;;;10.70;7.47;;;;;;;11.27;81.02;96046.91;6153240;23;20178;-79
2021/09/03 02:51:03;;;;;;;8.70;7.50;;;;;;;11.33;80.73;96054.16;6155045;23;20169;-80
2021/09/03 02:53:29;;;;;;;9.10;7.80;;;;;;;11.26;81.16;96050.47;6153496;23;20170;-79
2021/09/03 02:55:55;;;;;;;10.63;7.73;;;;;;;11.21;80.77;96043.06;6152363;23;20191;-78
2021/09/03 02:58:20;;;;;;;9.23;7.83;;;;;;;11.18;80.71;96039.94;6154048;23;20153;-79
2021/09/03 03:00:46;;;;;;;9.13;7.50;;;;;;;11.17;81.21;96043.50;6153362;23;20504;-78
2021/09/03 03:03:11;;;;;;;8.80;7.60;;;;;;;11.12;81.04;96038.72;6153593;23;20155;-77
2021/09/03 03:05:36;;;;;;;7.97;7.17;;;;;;;11.07;81.40;96035.72;6152749;23;20207;-77
2021/09/03 03:08:02;;;;;;;9.00;7.50;;;;;;;11.07;81.19;96039.16;6152402;23;20155;-80
2021/09/03 03:10:27;;;;;;;8.87;7.73;;;;;;;11.04;81.45;96035.97;6153552;23;20440;-80
2021/09/03 03:12:54;;;;;;;7.73;6.87;;;;;;;10.99;80.94;96033.81;6153454;23;20155;-78
2021/09/03 03:15:21;;;;;;;10.43;8.37;;;;;;;10.99;81.31;96036.41;6152525;23;20700;-79
2021/09/03 03:17:46;;;;;;;10.13;8.00;;;;;;;10.96;81.47;96026.31;6128941;23;20159;-78
2021/09/03 03:20:12;;;;;;;10.77;8.63;;;;;;;10.93;81.20;96020.53;6154062;23;20151;-78
2021/09/03 03:22:37;;;;;;;11.53;7.37;;;;;;;10.92;81.80;96027.53;6153586;23;20628;-79
2021/09/03 03:25:03;;;;;;;10.17;7.87;;;;;;;10.93;81.43;96021.38;6153200;23;20163;-78
2021/09/03 03:27:29;;;;;;;9.53;7.17;;;;;;;10.89;81.01;96020.00;6154348;23;20167;-79
2021/09/03 03:29:54;;;;;;;9.17;7.40;;;;;;;10.86;81.15;96025.47;6154571;23;20162;-79
2021/09/03 03:32:19;;;;;;;9.60;8.33;;;;;;;10.85;81.32;96026.44;6153852;23;20163;-80
2021/09/03 03:34:45;;;;;;;10.33;7.63;;;;;;;10.79;81.78;96021.81;6153113;23;20187;-80
2021/09/03 03:37:10;;;;;;;9.00;8.10;;;;;;;10.73;81.58;96028.34;6152670;23;20462;-80
2021/09/03 03:39:36;;;;;;;9.47;8.07;;;;;;;10.73;81.86;96025.75;6153615;23;20186;-78
2021/09/03 03:42:01;;;;;;;9.83;7.93;;;;;;;10.75;82.26;96023.84;6153566;23;20159;-78
2021/09/03 03:44:26;;;;;;;8.20;7.40;;;;;;;10.72;81.82;96031.09;6153686;23;20160;-79
2021/09/03 03:46:52;;;;;;;11.57;8.53;;;;;;;10.72;82.18;96026.72;6152982;23;20178;-78
2021/09/03 03:49:17;;;;;;;10.03;8.10;;;;;;;10.68;82.01;96035.72;6153572;23;20151;-78
2021/09/03 03:51:42;;;;;;;9.50;7.60;;;;;;;10.66;82.10;96021.25;6153356;23;20155;-79
2021/09/03 03:54:07;;;;;;;10.90;8.23;;;;;;;10.67;82.22;96020.28;6153715;23;20163;-79
2021/09/03 03:56:33;;;;;;;9.40;7.43;;;;;;;10.66;82.40;96024.66;6154733;23;20195;-79
2021/09/03 03:58:58;;;;;;;9.67;8.07;;;;;;;10.64;82.35;96015.38;6155611;23;20229;-78
2021/09/03 04:01:23;;;;;;;10.43;7.97;;;;;;;10.68;82.47;96011.53;6156275;23;20155;-79
2021/09/03 04:03:49;;;;;;;8.83;7.63;;;;;;;10.67;82.60;96012.50;6157587;23;20147;-79
2021/09/03 04:06:14;;;;;;;9.23;7.37;;;;;;;10.65;82.69;96017.81;6153507;23;20592;-79
2021/09/03 04:08:40;;;;;;;11.30;7.60;;;;;;;10.62;82.25;96012.91;6155520;23;20624;-80
2021/09/03 04:11:05;;;;;;;10.20;7.93;;;;;;;10.59;82.61;96014.94;6155629;23;20155;-79
2021/09/03 04:13:30;;;;;;;10.70;8.40;;;;;;;10.61;82.42;96020.84;6155439;23;20205;-79
2021/09/03 04:15:56;;;;;;;11.93;8.17;;;;;;;10.60;82.41;96016.59;6153502;23;20187;-78
2021/09/03 04:18:21;;;;;;;12.23;8.33;;;;;;;10.61;82.60;96018.25;6153723;23;20229;-80
2021/09/03 04:20:47;;;;;;;9.17;7.60;;;;;;;10.64;82.47;96013.59;6154488;23;20159;-79
2021/09/03 04:23:12;;;;;;;11.20;8.03;;;;;;;10.59;82.67;96015.75;6154807;23;20222;-80
2021/09/03 04:25:37;;;;;;;9.90;7.73;;;;;;;10.60;82.78;96020.03;6154134;23;20179;-79
2021/09/03 04:28:03;;;;;;;11.57;8.57;;;;;;;10.55;82.73;96009.22;6157866;23;20585;-78
2021/09/03 04:30:28;;;;;;;12.87;7.70;;;;;;;10.54;82.70;96015.38;6155576;23;20179;-78
2021/09/03 04:32:54;;;;;;;10.27;8.13;;;;;;;10.53;83.00;96007.72;6155629;23;20186;-81
2021/09/03 04:35:19;;;;;;;11.97;8.37;;;;;;;10.53;82.76;96010.31;6154589;23;20234;-77
2021/09/03 04:37:46;;;;;;;11.80;8.83;;;;;;;10.50;83.03;96027.78;6155656;23;20159;-80
2021/09/03 04:40:12;;;;;;;12.60;8.43;;;;;;;10.49;83.14;96020.94;6155677;23;20166;-80
2021/09/03 04:42:37;;;;;;;10.07;8.67;;;;;;;10.50;83.33;96020.00;6129888;23;20170;-80
2021/09/03 04:45:04;;;;;;;11.23;8.43;;;;;;;10.52;83.30;96021.66;6154048;23;20226;-78
2021/09/03 04:47:29;;;;;;;10.73;9.27;;;;;;;10.53;83.51;96026.72;6155716;23;20190;-80
2021/09/03 04:49:54;;;;;;;11.93;8.87;;;;;;;10.56;83.83;96031.63;6154607;23;20159;-79
2021/09/03 04:52:20;;;;;;;10.03;8.53;;;;;;;10.60;83.61;96029.56;6154327;23;20163;-79
2021/09/03 04:54:45;;;;;;;10.30;8.50;;;;;;;10.60;83.37;96026.97;6154730;23;20657;-80
2021/09/03 04:57:10;;;;;;;10.00;8.20;;;;;;;10.63;83.41;96024.13;6153125;23;20520;-80
2021/09/03 04:59:36;;;;;;;10.73;8.67;;;;;;;10.67;83.49;96028.88;6154483;23;20167;-80
2021/09/03 05:02:01;;;;;;;11.73;9.00;;;;;;;10.81;83.39;96026.84;6154497;23;20174;-79
2021/09/03 05:04:26;;;;;;;10.20;7.93;;;;;;;10.77;83.09;96023.69;6154265;23;20163;-79
2021/09/03 05:06:51;;;;;;;11.17;8.43;;;;;;;10.85;83.13;96023.00;6153636;23;20175;-80
2021/09/03 05:09:17;;;;;;;11.57;8.40;;;;;;;10.88;83.02;96017.56;6154034;23;20527;-80
2021/09/03 05:11:42;;;;;;;14.77;8.33;;;;;;;10.91;82.70;96017.28;6153648;23;20170;-79
2021/09/03 05:14:07;;;;;;;11.77;8.67;;;;;;;11.02;82.87;96012.75;6153902;23;20154;-80
2021/09/03 05:16:33;;;;;;;12.30;8.53;;;;;;;11.15;82.28;96016.84;6152675;23;20191;-80
2021/09/03 05:18:58;;;;;;;11.37;9.17;;;;;;;11.22;82.21;96012.69;6153707;23;20166;-79
2021/09/03 05:21:23;;;;;;;11.53;9.10;;;;;;;11.22;82.27;96020.50;6153794;23;20612;-80
2021/09/03 05:23:48;;;;;;;10.50;8.37;;;;;;;11.34;82.35;96019.41;6153825;23;20155;-80
2021/09/03 05:26:14;;;;;;;9.87;8.83;;;;;;;11.34;82.21;96011.59;6127986;23;20230;-80
2021/09/03 05:28:40;;;;;;;14.63;8.90;;;;;;;11.39;82.17;96011.97;6153106;23;20156;-79
2021/09/03 05:31:06;;;;;;;11.30;8.60;;;;;;;11.42;81.57;96016.91;6153901;23;20174;-81
2021/09/03 05:33:31;;;;;;;9.50;8.17;;;;;;;11.51;81.65;96020.44;6153483;23;20155;-79
2021/09/03 05:35:56;;;;;;;12.73;8.77;;;;;;;11.57;81.76;96019.84;6152593;23;20194;-81
2021/09/03 05:38:22;;;;;;;11.10;8.40;;;;;;;11.64;81.44;96028.75;6152044;23;20155;-79
2021/09/03 05:40:47;;;;;;;9.23;8.23;;;;;;;11.68;81.44;96026.69;6153212;23;20155;-79
2021/09/03 05:43:12;;;;;;;12.10;9.33;;;;;;;11.79;81.29;96027.31;6153627;23;20151;-81
2021/09/03 05:45:38;;;;;;;11.23;8.43;;;;;;;11.83;81.02;96031.28;6152778;23;20167;-79
2021/09/03 05:48:03;;;;;;;9.37;8.03;;;;;;;11.89;81.03;96030.72;6128809;23;20197;-81
2021/09/03 05:50:29;;;;;;;10.23;8.77;;;;;;;12.00;80.83;96029.72;6128680;23;20159;-80
2021/09/03 05:55:29;;;;;;;14.33;9.33;;;;;;;12.17;80.24;96033.34;6122729;23;20229;-80
2021/09/03 05:57:55;;;;;;;10.50;8.80;;;;;;;12.22;80.18;96027.69;6127290;23;20626;-79
2021/09/03 06:00:20;;;;;;;14.23;8.27;;;;;;;12.29;80.22;96031.38;6128871;23;20163;-79
2021/09/03 06:02:46;;;;;;;13.63;9.33;;;;;;;12.33;79.88;96030.91;6153398;23;20620;-79
2021/09/03 06:05:11;;;;;;;10.63;9.33;;;;;;;12.39;79.91;96029.53;6154382;23;20187;-80
2021/09/03 06:07:36;;;;;;;9.73;8.23;;;;;;;12.54;79.34;96028.03;6154484;23;20159;-80
2021/09/03 06:10:03;;;;;;;11.47;9.20;;;;;;;12.54;79.26;96020.22;6153274;23;20532;-79
2021/09/03 06:12:28;;;;;;;12.17;8.93;;;;;;;12.61;79.33;96023.88;6153079;23;20557;-78
2021/09/03 06:14:53;;;;;;;11.17;8.63;;;;;;;12.64;79.39;96020.97;6152273;23;20214;-79
2021/09/03 06:17:19;;;;;;;11.83;9.13;;;;;;;12.67;78.93;96025.88;6153267;23;20184;-80
2021/09/03 06:19:45;;;;;;;10.97;8.50;;;;;;;12.76;79.06;96026.78;6153634;23;20155;-79
2021/09/03 06:22:10;;;;;;;11.50;8.67;;;;;;;12.89;78.06;96019.38;6153406;23;20151;-78
2021/09/03 06:24:35;;;;;;;11.00;9.20;;;;;;;12.94;77.86;96019.78;6127685;23;20202;-80
2021/09/03 06:27:03;;;;;;;10.40;8.63;;;;;;;13.08;77.81;96028.03;6153430;23;20623;-80
2021/09/03 06:29:42;;;;;;;11.90;8.13;;;;;;;13.07;77.36;96026.38;6129011;23;20152;-81
2021/09/03 06:32:08;;;;;;;13.03;9.20;;;;;;;13.15;77.51;96029.03;6154667;23;20480;-79
2021/09/03 06:34:35;;;;;;;12.27;8.70;;;;;;;13.19;76.46;96031.25;6154193;23;20640;-81
2021/09/03 06:37:00;;;;;;;11.23;8.40;;;;;;;13.22;76.35;96030.94;6155974;23;20160;-82
2021/09/03 06:39:25;;;;;;;12.13;8.27;;;;;;;13.21;76.63;96023.25;6154794;23;20209;-80
2021/09/03 06:41:52;;;;;;;10.00;8.70;;;;;;;13.36;75.49;96020.94;6158491;23;20163;-79
2021/09/03 06:44:17;;;;;;;12.93;9.00;;;;;;;13.36;76.10;96021.75;6154801;23;20178;-80
2021/09/03 06:46:42;;;;;;;9.27;8.07;;;;;;;13.41;75.95;96021.28;6157042;23;20163;-79
2021/09/03 06:49:08;;;;;;;10.37;8.23;;;;;;;13.50;75.55;96021.16;6158895;23;20705;-80
2021/09/03 06:51:33;;;;;;;10.17;8.07;;;;;;;13.51;75.56;96016.75;6159780;23;20494;-80
2021/09/03 06:53:58;;;;;;;11.53;8.43;;;;;;;13.58;76.05;96025.63;6157491;23;20181;-81
2021/09/03 06:56:24;;;;;;;10.77;8.50;;;;;;;13.68;76.00;96017.69;6157999;23;20179;-81
2021/09/03 06:58:49;;;;;;;10.10;8.77;;;;;;;13.76;74.99;96023.75;6159955;23;20179;-79
2021/09/03 07:01:14;;;;;;;12.60;8.53;;;;;;;13.81;74.84;96026.75;6160592;23;20639;-81
2021/09/03 07:03:40;;;;;;;10.17;8.13;;;;;;;13.86;75.05;96029.69;6156503;23;20175;-80
2021/09/03 07:06:05;;;;;;;14.10;8.73;;;;;;;13.93;75.08;96029.88;6156381;23;20202;-79
2021/09/03 07:08:30;;;;;;;11.70;7.83;;;;;;;14.02;75.35;96028.94;6157082;23;20160;-81
2021/09/03 07:10:55;;;;;;;10.23;9.00;;;;;;;14.11;74.06;96032.41;6161222;23;20170;-81
2021/09/03 07:13:21;;;;;;;9.67;8.67;;;;;;;14.12;74.38;96034.03;6158903;23;20163;-79
2021/09/03 07:15:46;;;;;;;12.77;8.83;;;;;;;14.23;74.25;96035.56;6162692;23;20256;-80
2021/09/03 07:18:11;;;;;;;10.20;8.70;;;;;;;14.35;73.69;96039.50;6155769;23;20160;-80
2021/09/03 07:20:37;;;;;;;9.80;8.77;;;;;;;14.40;73.25;96040.69;6157727;23;20190;-81
2021/09/03 07:23:02;;;;;;;9.63;8.67;;;;;;;14.45;72.73;96046.28;6158130;23;20155;-79
2021/09/03 07:25:27;;;;;;;10.30;8.70;;;;;;;14.54;73.11;96043.69;6156835;23;20301;-78
2021/09/03 07:27:53;;;;;;;10.57;8.00;;;;;;;14.58;73.03;96045.81;6155761;23;20202;-79
2021/09/03 07:30:18;;;;;;;11.73;7.80;;;;;;;14.62;73.62;96049.75;6159931;23;20497;-77
2021/09/03 07:32:44;;;;;;;10.83;8.63;;;;;;;14.76;72.64;96045.69;6162182;23;20380;-79
2021/09/03 07:35:11;;;;;;;10.93;8.37;;;;;;;14.70;73.20;96049.75;6156763;23;20175;-83
2021/09/03 07:37:38;;;;;;;13.63;9.27;;;;;;;14.86;72.10;96048.97;6154250;23;20219;-81
2021/09/03 07:40:03;;;;;;;11.43;8.17;;;;;;;14.93;71.15;96039.50;6154567;23;20691;-79
2021/09/03 07:42:29;;;;;;;9.53;7.63;;;;;;;15.04;71.81;96042.78;6153367;23;20163;-78
2021/09/03 07:44:54;;;;;;;11.67;7.93;;;;;;;15.18;71.60;96042.09;6153185;23;20175;-77
2021/09/03 07:47:19;;;;;;;9.90;7.90;;;;;;;15.23;71.53;96035.41;6153432;23;20206;-79
2021/09/03 07:49:45;;;;;;;10.10;8.27;;;;;;;15.33;71.29;96026.56;6154294;23;20492;-80
2021/09/03 07:52:10;;;;;;;11.37;7.67;;;;;;;15.46;71.07;96030.34;6154267;23;20171;-77
2021/09/03 07:54:35;;;;;;;10.07;7.90;;;;;;;15.60;69.58;96026.19;6154463;23;20183;-79
2021/09/03 07:57:01;;;;;;;9.47;7.47;;;;;;;15.67;69.89;96026.38;6155917;23;20612;-79
2021/09/03 07:59:26;;;;;;;9.93;7.57;;;;;;;15.71;68.53;96027.69;6155577;23;20588;-80
2021/09/03 08:01:51;;;;;;;10.53;7.83;;;;;;;15.77;69.06;96029.63;6154350;23;20186;-79
2021/09/03 08:04:17;;;;;;;9.15;7.88;;;;;;;15.91;68.00;96025.50;6153362;23;20186;-78
2021/09/03 08:06:43;;;;;;;10.00;7.57;;;;;;;15.92;67.19;96033.19;6156374;23;20390;-78
2021/09/03 08:09:08;;;;;;;8.87;7.87;;;;;;;15.98;67.93;96023.81;6154751;23;20156;-77
2021/09/03 08:11:34;;;;;;;10.70;8.07;;;;;;;16.13;67.78;96022.97;6155422;23;20160;-79
2021/09/03 08:13:59;;;;;;;9.07;7.73;;;;;;;16.16;66.80;96029.66;6153668;23;20175;-79
2021/09/03 08:16:24;;;;;;;10.80;8.60;;;;;;;16.30;66.43;96017.66;6154270;23;20186;-79
2021/09/03 08:18:49;;;;;;;9.05;7.75;;;;;;;16.42;66.41;96021.50;6152972;23;20163;-80
2021/09/03 08:21:15;;;;;;;9.77;7.40;;;;;;;16.46;65.94;96028.06;6153429;23;20163;-78
2021/09/03 08:23:40;;;;;;;9.45;7.43;;;;;;;16.53;66.00;96023.75;6152163;23;20652;-79
2021/09/03 08:26:05;;;;;;;9.90;7.40;;;;;;;16.63;65.57;96023.53;6152674;23;20167;-79
2021/09/03 08:28:31;;;;;;;8.80;7.40;;;;;;;16.76;65.92;96028.22;6128324;23;20174;-76
2021/09/03 08:30:56;;;;;;;9.55;7.32;;;;;;;16.88;64.68;96032.91;6151952;23;20156;-78
2021/09/03 08:33:21;;;;;;;10.52;7.30;;;;;;;16.98;65.76;96019.56;6151740;23;20156;-80
2021/09/03 08:35:47;;;;;;;8.63;7.50;;;;;;;17.12;65.06;96025.81;6151399;23;20259;-78
2021/09/03 08:38:12;;;;;;;9.02;6.45;;;;;;;17.13;63.86;96025.66;6151351;23;20217;-79
2021/09/03 08:40:37;;;;;;;10.15;7.82;;;;;;;17.16;63.05;96030.56;6153935;23;20155;-80
2021/09/03 08:43:03;;;;;;;9.32;7.22;;;;;;;17.29;62.25;96027.31;6154437;23;20162;-83
2021/09/03 08:45:28;;;;;;;8.32;7.10;;;;;;;17.41;62.59;96025.91;6129488;23;20708;-80
2021/09/03 08:47:54;;;;;;;8.00;7.05;;;;;;;17.51;63.18;96028.28;6153846;23;20159;-80
2021/09/03 08:50:19;;;;;;;8.93;6.93;;;;;;;17.45;59.71;96034.25;6154344;23;20144;-79
2021/09/03 08:52:46;;;;;;;9.82;7.22;;;;;;;17.46;59.15;96033.25;6128798;23;20159;-79
2021/09/03 08:55:12;;;;;;;7.75;6.50;;;;;;;17.64;61.93;96017.97;6152454;23;20199;-80
2021/09/03 08:57:38;;;;;;;8.63;7.18;;;;;;;17.72;61.40;96028.44;6154081;23;20569;-79
2021/09/03 09:00:22;;;;;;;9.50;8.15;;;;;;;17.68;61.66;96027.13;6129258;23;20206;-81
2021/09/03 09:03:00;;;;;;;9.40;7.93;;;;;;;17.86;62.35;96031.25;6153986;23;20481;-81
2021/09/03 09:05:48;;;;;;;11.10;8.18;;;;;;;18.06;61.14;96035.78;6152751;23;20222;-81
2021/09/03 09:08:14;;;;;;;9.07;7.18;;;;;;;18.08;61.90;96032.97;6155819;23;20182;-80
2021/09/03 09:10:46;;;;;;;7.78;6.25;;;;;;;18.18;62.50;96036.13;6142803;23;20221;-80
2021/09/03 09:13:13;;;;;;;10.43;7.47;;;;;;;18.35;59.37;96034.91;6139632;23;20159;-80
2021/09/03 09:15:39;;;;;;;9.15;7.85;;;;;;;18.21;58.92;96041.03;6153803;23;20203;-79
2021/09/03 09:18:04;;;;;;;12.15;7.43;;;;;;;18.18;59.81;96037.94;6155185;23;20195;-78
2021/09/03 09:20:29;;;;;;;7.75;7.05;;;;;;;18.24;59.99;96039.84;6154349;23;20151;-80
2021/09/03 09:22:59;;;;;;;8.35;7.45;;;;;;;18.27;60.79;96042.91;6154410;23;20159;-81
2021/09/03 09:25:28;;;;;;;9.45;7.55;;;;;;;18.35;58.70;96036.72;6129224;23;20219;-81
2021/09/03 09:27:55;;;;;;;8.35;6.80;;;;;;;18.30;58.71;96033.84;6129989;23;20166;-80
2021/09/03 09:30:26;;;;;;;8.95;7.78;;;;;;;18.23;59.10;96033.78;6129964;23;20166;-80
2021/09/03 09:33:12;;;;;;;8.70;7.32;;;;;;;18.33;60.69;96031.66;6130862;23;20159;-80
2021/09/03 09:35:49;;;;;;;10.23;8.02;;;;;;;18.36;57.03;96028.66;6128749;23;20687;-81
2021/09/03 09:38:17;;;;;;;8.85;6.93;;;;;;;18.53;57.40;96025.81;6154180;23;20666;-80
2021/09/03 09:40:53;;;;;;;8.60;7.45;;;;;;;18.62;59.33;96027.34;6153274;23;20178;-79
2021/09/03 09:43:26;;;;;;;9.35;7.57;;;;;;;18.76;57.48;96023.88;6153754;23;20147;-79
2021/09/03 09:46:06;;;;;;;8.40;6.88;;;;;;;18.83;58.48;96027.41;6152909;23;20179;-79
2021/09/03 09:48:32;;;;;;;11.13;7.65;;;;;;;18.97;58.28;96025.69;6154960;23;20162;-80
2021/09/03 09:50:57;;;;;;;9.90;6.70;;;;;;;19.00;56.73;96027.97;6156056;23;20570;-81
2021/09/03 09:53:22;;;;;;;12.35;8.02;;;;;;;18.78;56.68;96019.25;6154929;23;20212;-80
2021/09/03 09:55:48;;;;;;;8.50;6.90;;;;;;;18.81;57.57;96016.22;6155171;23;20249;-80
2021/09/03 09:58:15;;;;;;;11.68;8.20;;;;;;;18.91;57.90;96015.94;6155788;23;20162;-80
2021/09/03 10:00:40;;;;;;;10.13;8.25;;;;;;;18.87;57.58;96015.50;6156646;23;20155;-81
2021/09/03 10:03:06;;;;;;;9.02;7.32;;;;;;;18.99;58.85;96022.88;6156742;23;20158;-80
2021/09/03 10:05:32;;;;;;;9.20;7.82;;;;;;;19.01;58.13;96013.81;6155640;23;20163;-81
2021/09/03 10:07:58;;;;;;;8.85;7.18;;;;;;;19.16;57.90;96011.91;6155965;23;20159;-80
2021/09/03 10:10:24;;;;;;;11.25;8.35;;;;;;;19.08;55.54;96011.22;6156224;23;20214;-78
2021/09/03 10:12:49;;;;;;;9.18;7.78;;;;;;;19.14;57.17;96010.47;6155761;23;20205;-81
2021/09/03 10:15:17;;;;;;;8.15;7.25;;;;;;;19.26;56.96;96008.97;6155658;23;20183;-81
2021/09/03 10:17:43;;;;;;;9.57;6.78;;;;;;;19.32;57.42;96008.19;6155816;23;20631;-80
2021/09/03 10:20:09;;;;;;;7.72;6.85;;;;;;;19.39;56.83;96011.69;6130921;23;20159;-79
2021/09/03 10:22:42;;;;;;;8.43;7.32;;;;;;;19.50;56.51;96010.34;6131007;23;20199;-80
2021/09/03 10:25:09;;;;;;;8.07;7.28;;;;;;;19.52;55.83;96011.81;6130453;23;20251;-80
2021/09/03 10:27:34;;;;;;;8.70;7.72;;;;;;;19.44;56.73;96011.94;6155730;23;20246;-80
2021/09/03 10:30:21;;;;;;;9.82;6.85;;;;;;;19.58;57.67;96017.34;6155493;23;20230;-81
2021/09/03 10:32:46;;;;;;;8.35;7.38;;;;;;;19.56;57.59;96014.91;6156007;23;20151;-80
2021/09/03 10:35:15;;;;;;;11.10;7.68;;;;;;;19.60;54.92;96005.59;6155291;23;20185;-78
2021/09/03 10:37:40;;;;;;;8.85;7.45;;;;;;;19.54;55.65;96006.34;6156852;23;20668;-80
2021/09/03 10:40:07;;;;;;;10.00;8.30;;;;;;;19.48;56.78;96002.66;6155977;23;20152;-80
2021/09/03 10:42:48;;;;;;;12.00;8.32;;;;;;;19.21;56.47;96006.09;6157293;23;20155;-80
2021/09/03 10:45:22;;;;;;;9.77;7.60;;;;;;;19.44;56.08;96005.88;6156135;23;20232;-80
2021/09/03 10:47:56;;;;;;;11.23;8.52;;;;;;;19.37;55.01;96002.38;6155607;23;20214;-80
2021/09/03 10:50:32;;;;;;;9.68;7.75;;;;;;;19.52;56.14;95998.66;6157347;23;20150;-82
2021/09/03 10:53:06;;;;;;;9.85;7.03;;;;;;;19.69;55.69;96003.63;6155856;23;20213;-80
2021/09/03 10:55:58;;;;;;;11.55;7.38;;;;;;;19.85;56.17;96005.16;6153429;23;20197;-79
2021/09/03 10:58:55;;;;;;;10.02;9.02;;;;;;;19.93;56.45;96000.53;6156373;23;20159;-80
2021/09/03 11:01:20;;;;;;;9.57;8.00;;;;;;;19.98;56.59;95995.50;6156922;23;20147;-80
2021/09/03 11:03:51;;;;;;;11.15;8.65;;;;;;;20.19;57.49;95999.84;6155350;23;20186;-79
2021/09/03 11:06:26;;;;;;;10.13;8.40;;;;;;;20.32;54.57;95999.91;6139189;23;20231;-82
2021/09/03 11:09:16;;;;;;;11.23;8.38;;;;;;;20.08;56.20;95995.94;6168077;23;20136;-77
2021/09/03 11:11:43;;;;;;;15.02;9.80;;;;;;;20.20;56.38;95985.66;6155094;23;20194;-78
2021/09/03 11:14:14;;;;;;;52.60;29.42;;;;;;;20.31;53.82;95997.44;6127956;23;20179;-79
2021/09/03 11:16:43;;;;;;;16.63;11.32;;;;;;;20.32;52.83;95993.81;6127953;23;20262;-76
2021/09/03 11:19:10;;;;;;;11.38;8.55;;;;;;;20.35;52.64;95988.16;6152898;23;20305;-80
2021/09/03 11:21:40;;;;;;;11.05;9.07;;;;;;;20.19;53.56;95985.84;6152724;23;20159;-79
2021/09/03 11:24:06;;;;;;;10.88;8.40;;;;;;;20.21;53.15;95991.72;6148271;23;20530;-81
2021/09/03 11:26:34;;;;;;;10.55;7.80;;;;;;;20.21;54.22;95983.81;6154498;23;20162;-79
2021/09/03 11:29:02;;;;;;;8.82;7.93;;;;;;;20.25;56.80;95982.44;6154779;23;20163;-83